sensor_id;sensor_type;location;lat;lon;timestamp;pressure;altitude;pressure_sealevel;temperature
25514;BMP180;48128;54.242;10.280;2022-11-20T00:01:24;100706.00;;;0.60
25514;BMP180;48128;54.242;10.280;2022-11-20T00:03:52;100718.00;;;0.60
25514;BMP180;48128;54.242;10.280;2022-11-20T00:06:19;100715.00;;;0.60
25514;BMP180;48128;54.242;10.280;2022-11-20T00:08:47;100716.00;;;0.60
25514;BMP180;48128;54.242;10.280;2022-11-20T00:11:16;100712.00;;;0.60
25514;BMP180;48128;54.242;10.280;2022-11-20T00:13:44;100712.00;;;0.60
25514;BMP180;48128;54.242;10.280;2022-11-20T00:16:14;100724.00;;;0.60
25514;BMP180;48128;54.242;10.280;2022-11-20T00:18:41;100715.00;;;0.60
25514;BMP180;48128;54.242;10.280;2022-11-20T00:21:14;100715.00;;;0.60
25514;BMP180;48128;54.242;10.280;2022-11-20T00:23:41;100708.00;;;0.60
25514;BMP180;48128;54.242;10.280;2022-11-20T00:26:11;100706.00;;;0.60
25514;BMP180;48128;54.242;10.280;2022-11-20T00:28:39;100706.00;;;0.60
25514;BMP180;48128;54.242;10.280;2022-11-20T00:31:08;100717.00;;;0.60
25514;BMP180;48128;54.242;10.280;2022-11-20T00:33:35;100725.00;;;0.60
25514;BMP180;48128;54.242;10.280;2022-11-20T00:36:04;100717.00;;;0.60
25514;BMP180;48128;54.242;10.280;2022-11-20T00:38:32;100712.00;;;0.60
25514;BMP180;48128;54.242;10.280;2022-11-20T00:41:00;100716.00;;;0.60
25514;BMP180;48128;54.242;10.280;2022-11-20T00:43:27;100719.00;;;0.60
25514;BMP180;48128;54.242;10.280;2022-11-20T00:46:14;100715.00;;;0.50
25514;BMP180;48128;54.242;10.280;2022-11-20T00:48:42;100705.00;;;0.50
25514;BMP180;48128;54.242;10.280;2022-11-20T00:51:09;100705.00;;;0.50
25514;BMP180;48128;54.242;10.280;2022-11-20T00:53:37;100703.00;;;0.60
25514;BMP180;48128;54.242;10.280;2022-11-20T00:56:06;100702.00;;;0.50
25514;BMP180;48128;54.242;10.280;2022-11-20T00:58:38;100707.00;;;0.60
25514;BMP180;48128;54.242;10.280;2022-11-20T01:01:06;100695.00;;;0.50
25514;BMP180;48128;54.242;10.280;2022-11-20T01:03:34;100713.00;;;0.50
25514;BMP180;48128;54.242;10.280;2022-11-20T01:06:03;100705.00;;;0.50
25514;BMP180;48128;54.242;10.280;2022-11-20T01:08:31;100713.00;;;0.50
25514;BMP180;48128;54.242;10.280;2022-11-20T01:11:00;100702.00;;;0.50
25514;BMP180;48128;54.242;10.280;2022-11-20T01:13:29;100707.00;;;0.50
25514;BMP180;48128;54.242;10.280;2022-11-20T01:16:17;100698.00;;;0.50
25514;BMP180;48128;54.242;10.280;2022-11-20T01:18:48;100693.00;;;0.50
25514;BMP180;48128;54.242;10.280;2022-11-20T01:23:52;100690.00;;;0.50
25514;BMP180;48128;54.242;10.280;2022-11-20T01:26:21;100688.00;;;0.50
25514;BMP180;48128;54.242;10.280;2022-11-20T01:28:49;100687.00;;;0.40
25514;BMP180;48128;54.242;10.280;2022-11-20T01:31:22;100689.00;;;0.50
25514;BMP180;48128;54.242;10.280;2022-11-20T01:33:50;100686.00;;;0.40
25514;BMP180;48128;54.242;10.280;2022-11-20T01:36:19;100679.00;;;0.50
25514;BMP180;48128;54.242;10.280;2022-11-20T01:38:46;100681.00;;;0.40
25514;BMP180;48128;54.242;10.280;2022-11-20T01:41:14;100679.00;;;0.50
25514;BMP180;48128;54.242;10.280;2022-11-20T01:44:03;100666.00;;;0.50
25514;BMP180;48128;54.242;10.280;2022-11-20T01:46:32;100666.00;;;0.50
25514;BMP180;48128;54.242;10.280;2022-11-20T01:49:04;100659.00;;;0.50
25514;BMP180;48128;54.242;10.280;2022-11-20T01:51:44;100662.00;;;0.50
25514;BMP180;48128;54.242;10.280;2022-11-20T01:54:14;100659.00;;;0.50
25514;BMP180;48128;54.242;10.280;2022-11-20T01:56:44;100663.00;;;0.50
25514;BMP180;48128;54.242;10.280;2022-11-20T01:59:12;100655.00;;;0.50
25514;BMP180;48128;54.242;10.280;2022-11-20T02:01:40;100645.00;;;0.50
25514;BMP180;48128;54.242;10.280;2022-11-20T02:04:07;100641.00;;;0.40
25514;BMP180;48128;54.242;10.280;2022-11-20T02:09:06;100638.00;;;0.40
25514;BMP180;48128;54.242;10.280;2022-11-20T02:11:33;100638.00;;;0.40
25514;BMP180;48128;54.242;10.280;2022-11-20T02:14:00;100637.00;;;0.40
25514;BMP180;48128;54.242;10.280;2022-11-20T02:16:36;100636.00;;;0.40
25514;BMP180;48128;54.242;10.280;2022-11-20T02:19:07;100634.00;;;0.40
25514;BMP180;48128;54.242;10.280;2022-11-20T02:24:10;100625.00;;;0.50
25514;BMP180;48128;54.242;10.280;2022-11-20T02:29:39;100626.00;;;0.50
25514;BMP180;48128;54.242;10.280;2022-11-20T02:32:28;100629.00;;;0.50
25514;BMP180;48128;54.242;10.280;2022-11-20T02:34:55;100617.00;;;0.50
25514;BMP180;48128;54.242;10.280;2022-11-20T02:37:25;100629.00;;;0.50
25514;BMP180;48128;54.242;10.280;2022-11-20T02:39:54;100632.00;;;0.50
25514;BMP180;48128;54.242;10.280;2022-11-20T02:42:21;100610.00;;;0.50
25514;BMP180;48128;54.242;10.280;2022-11-20T02:44:48;100625.00;;;0.50
25514;BMP180;48128;54.242;10.280;2022-11-20T02:47:15;100616.00;;;0.40
25514;BMP180;48128;54.242;10.280;2022-11-20T02:49:42;100617.00;;;0.40
25514;BMP180;48128;54.242;10.280;2022-11-20T02:52:09;100625.00;;;0.50
25514;BMP180;48128;54.242;10.280;2022-11-20T02:54:35;100621.00;;;0.40
25514;BMP180;48128;54.242;10.280;2022-11-20T02:57:02;100618.00;;;0.50
25514;BMP180;48128;54.242;10.280;2022-11-20T02:59:29;100623.00;;;0.50
25514;BMP180;48128;54.242;10.280;2022-11-20T03:01:56;100606.00;;;0.40
25514;BMP180;48128;54.242;10.280;2022-11-20T03:04:23;100613.00;;;0.50
25514;BMP180;48128;54.242;10.280;2022-11-20T03:06:50;100607.00;;;0.50
25514;BMP180;48128;54.242;10.280;2022-11-20T03:09:17;100612.00;;;0.40
25514;BMP180;48128;54.242;10.280;2022-11-20T03:11:44;100615.00;;;0.50
25514;BMP180;48128;54.242;10.280;2022-11-20T03:14:10;100615.00;;;0.50
25514;BMP180;48128;54.242;10.280;2022-11-20T03:16:37;100617.00;;;0.50
25514;BMP180;48128;54.242;10.280;2022-11-20T03:19:04;100620.00;;;0.40
25514;BMP180;48128;54.242;10.280;2022-11-20T03:21:32;100622.00;;;0.40
25514;BMP180;48128;54.242;10.280;2022-11-20T03:24:00;100612.00;;;0.40
25514;BMP180;48128;54.242;10.280;2022-11-20T03:26:27;100620.00;;;0.40
25514;BMP180;48128;54.242;10.280;2022-11-20T03:28:56;100614.00;;;0.40
25514;BMP180;48128;54.242;10.280;2022-11-20T03:31:27;100609.00;;;0.40
25514;BMP180;48128;54.242;10.280;2022-11-20T03:33:56;100606.00;;;0.40
25514;BMP180;48128;54.242;10.280;2022-11-20T03:36:23;100615.00;;;0.40
25514;BMP180;48128;54.242;10.280;2022-11-20T03:38:50;100606.00;;;0.40
25514;BMP180;48128;54.242;10.280;2022-11-20T03:41:22;100600.00;;;0.40
25514;BMP180;48128;54.242;10.280;2022-11-20T03:43:50;100605.00;;;0.40
25514;BMP180;48128;54.242;10.280;2022-11-20T03:46:18;100592.00;;;0.40
25514;BMP180;48128;54.242;10.280;2022-11-20T03:48:45;100605.00;;;0.40
25514;BMP180;48128;54.242;10.280;2022-11-20T03:51:19;100613.00;;;0.40
25514;BMP180;48128;54.242;10.280;2022-11-20T03:53:47;100599.00;;;0.40
25514;BMP180;48128;54.242;10.280;2022-11-20T03:56:15;100600.00;;;0.40
25514;BMP180;48128;54.242;10.280;2022-11-20T03:58:43;100605.00;;;0.40
25514;BMP180;48128;54.242;10.280;2022-11-20T04:01:11;100609.00;;;0.40
25514;BMP180;48128;54.242;10.280;2022-11-20T04:03:40;100610.00;;;0.40
25514;BMP180;48128;54.242;10.280;2022-11-20T04:08:41;100595.00;;;0.40
25514;BMP180;48128;54.242;10.280;2022-11-20T04:11:28;100589.00;;;0.40
25514;BMP180;48128;54.242;10.280;2022-11-20T04:14:02;100592.00;;;0.40
25514;BMP180;48128;54.242;10.280;2022-11-20T04:16:31;100581.00;;;0.40
25514;BMP180;48128;54.242;10.280;2022-11-20T04:18:59;100588.00;;;0.40
25514;BMP180;48128;54.242;10.280;2022-11-20T04:21:26;100590.00;;;0.40
25514;BMP180;48128;54.242;10.280;2022-11-20T04:23:54;100587.00;;;0.40
25514;BMP180;48128;54.242;10.280;2022-11-20T04:26:22;100587.00;;;0.40
25514;BMP180;48128;54.242;10.280;2022-11-20T04:28:50;100582.00;;;0.30
25514;BMP180;48128;54.242;10.280;2022-11-20T04:31:19;100581.00;;;0.40
25514;BMP180;48128;54.242;10.280;2022-11-20T04:33:47;100590.00;;;0.40
25514;BMP180;48128;54.242;10.280;2022-11-20T04:36:16;100581.00;;;0.40
25514;BMP180;48128;54.242;10.280;2022-11-20T04:38:43;100582.00;;;0.40
25514;BMP180;48128;54.242;10.280;2022-11-20T04:41:20;100579.00;;;0.40
25514;BMP180;48128;54.242;10.280;2022-11-20T04:43:52;100572.00;;;0.40
25514;BMP180;48128;54.242;10.280;2022-11-20T04:46:20;100566.00;;;0.40
25514;BMP180;48128;54.242;10.280;2022-11-20T04:48:47;100578.00;;;0.40
25514;BMP180;48128;54.242;10.280;2022-11-20T04:51:14;100574.00;;;0.40
25514;BMP180;48128;54.242;10.280;2022-11-20T04:53:41;100579.00;;;0.40
25514;BMP180;48128;54.242;10.280;2022-11-20T04:56:09;100569.00;;;0.30
25514;BMP180;48128;54.242;10.280;2022-11-20T04:58:37;100582.00;;;0.40
25514;BMP180;48128;54.242;10.280;2022-11-20T05:01:15;100573.00;;;0.40
25514;BMP180;48128;54.242;10.280;2022-11-20T05:03:43;100582.00;;;0.30
25514;BMP180;48128;54.242;10.280;2022-11-20T05:06:12;100569.00;;;0.40
25514;BMP180;48128;54.242;10.280;2022-11-20T05:08:39;100568.00;;;0.40
25514;BMP180;48128;54.242;10.280;2022-11-20T05:11:08;100582.00;;;0.40
25514;BMP180;48128;54.242;10.280;2022-11-20T05:13:36;100568.00;;;0.40
25514;BMP180;48128;54.242;10.280;2022-11-20T05:16:25;100567.00;;;0.40
25514;BMP180;48128;54.242;10.280;2022-11-20T05:18:52;100561.00;;;0.40
25514;BMP180;48128;54.242;10.280;2022-11-20T05:21:20;100564.00;;;0.40
25514;BMP180;48128;54.242;10.280;2022-11-20T05:23:47;100557.00;;;0.40
25514;BMP180;48128;54.242;10.280;2022-11-20T05:26:16;100563.00;;;0.30
25514;BMP180;48128;54.242;10.280;2022-11-20T05:28:43;100551.00;;;0.40
25514;BMP180;48128;54.242;10.280;2022-11-20T05:31:15;100558.00;;;0.40
25514;BMP180;48128;54.242;10.280;2022-11-20T05:33:49;100554.00;;;0.30
25514;BMP180;48128;54.242;10.280;2022-11-20T05:36:16;100550.00;;;0.40
25514;BMP180;48128;54.242;10.280;2022-11-20T05:38:44;100549.00;;;0.40
25514;BMP180;48128;54.242;10.280;2022-11-20T05:41:18;100550.00;;;0.40
25514;BMP180;48128;54.242;10.280;2022-11-20T05:43:46;100539.00;;;0.40
25514;BMP180;48128;54.242;10.280;2022-11-20T05:46:14;100533.00;;;0.40
25514;BMP180;48128;54.242;10.280;2022-11-20T05:48:42;100543.00;;;0.40
25514;BMP180;48128;54.242;10.280;2022-11-20T05:51:11;100540.00;;;0.40
25514;BMP180;48128;54.242;10.280;2022-11-20T05:53:38;100539.00;;;0.40
25514;BMP180;48128;54.242;10.280;2022-11-20T05:56:14;100539.00;;;0.40
25514;BMP180;48128;54.242;10.280;2022-11-20T05:58:42;100540.00;;;0.30
25514;BMP180;48128;54.242;10.280;2022-11-20T06:01:23;100534.00;;;0.30
25514;BMP180;48128;54.242;10.280;2022-11-20T06:03:50;100542.00;;;0.30
25514;BMP180;48128;54.242;10.280;2022-11-20T06:06:18;100545.00;;;0.40
25514;BMP180;48128;54.242;10.280;2022-11-20T06:08:45;100544.00;;;0.40
25514;BMP180;48128;54.242;10.280;2022-11-20T06:11:13;100539.00;;;0.30
25514;BMP180;48128;54.242;10.280;2022-11-20T06:13:41;100533.00;;;0.40
25514;BMP180;48128;54.242;10.280;2022-11-20T06:16:09;100534.00;;;0.30
25514;BMP180;48128;54.242;10.280;2022-11-20T06:18:36;100520.00;;;0.30
25514;BMP180;48128;54.242;10.280;2022-11-20T06:21:09;100520.00;;;0.30
25514;BMP180;48128;54.242;10.280;2022-11-20T06:23:36;100526.00;;;0.30
25514;BMP180;48128;54.242;10.280;2022-11-20T06:26:08;100525.00;;;0.30
25514;BMP180;48128;54.242;10.280;2022-11-20T06:28:35;100522.00;;;0.30
25514;BMP180;48128;54.242;10.280;2022-11-20T06:31:04;100511.00;;;0.30
25514;BMP180;48128;54.242;10.280;2022-11-20T06:33:31;100523.00;;;0.30
25514;BMP180;48128;54.242;10.280;2022-11-20T06:36:01;100522.00;;;0.30
25514;BMP180;48128;54.242;10.280;2022-11-20T06:38:37;100504.00;;;0.20
25514;BMP180;48128;54.242;10.280;2022-11-20T06:41:05;100520.00;;;0.20
25514;BMP180;48128;54.242;10.280;2022-11-20T06:43:32;100509.00;;;0.20
25514;BMP180;48128;54.242;10.280;2022-11-20T06:45:59;100516.00;;;0.20
25514;BMP180;48128;54.242;10.280;2022-11-20T06:48:27;100509.00;;;0.30
25514;BMP180;48128;54.242;10.280;2022-11-20T06:50:55;100515.00;;;0.30
25514;BMP180;48128;54.242;10.280;2022-11-20T06:53:22;100519.00;;;0.30
25514;BMP180;48128;54.242;10.280;2022-11-20T06:55:51;100518.00;;;0.30
25514;BMP180;48128;54.242;10.280;2022-11-20T06:58:18;100512.00;;;0.30
25514;BMP180;48128;54.242;10.280;2022-11-20T07:00:45;100501.00;;;0.30
25514;BMP180;48128;54.242;10.280;2022-11-20T07:03:12;100501.00;;;0.30
25514;BMP180;48128;54.242;10.280;2022-11-20T07:05:39;100509.00;;;0.30
25514;BMP180;48128;54.242;10.280;2022-11-20T07:08:07;100507.00;;;0.30
25514;BMP180;48128;54.242;10.280;2022-11-20T07:10:34;100506.00;;;0.30
25514;BMP180;48128;54.242;10.280;2022-11-20T07:13:01;100506.00;;;0.30
25514;BMP180;48128;54.242;10.280;2022-11-20T07:15:28;100495.00;;;0.30
25514;BMP180;48128;54.242;10.280;2022-11-20T07:17:58;100510.00;;;0.30
25514;BMP180;48128;54.242;10.280;2022-11-20T07:20:25;100509.00;;;0.30
25514;BMP180;48128;54.242;10.280;2022-11-20T07:22:56;100510.00;;;0.20
25514;BMP180;48128;54.242;10.280;2022-11-20T07:25:27;100511.00;;;0.20
25514;BMP180;48128;54.242;10.280;2022-11-20T07:27:58;100504.00;;;0.30
25514;BMP180;48128;54.242;10.280;2022-11-20T07:30:26;100509.00;;;0.30
25514;BMP180;48128;54.242;10.280;2022-11-20T07:32:54;100506.00;;;0.30
25514;BMP180;48128;54.242;10.280;2022-11-20T07:35:59;100523.00;;;0.30
25514;BMP180;48128;54.242;10.280;2022-11-20T07:38:45;100518.00;;;0.40
25514;BMP180;48128;54.242;10.280;2022-11-20T07:44:19;100516.00;;;0.60
25514;BMP180;48128;54.242;10.280;2022-11-20T07:46:45;100515.00;;;0.60
25514;BMP180;48128;54.242;10.280;2022-11-20T07:49:12;100507.00;;;0.60
25514;BMP180;48128;54.242;10.280;2022-11-20T07:51:39;100502.00;;;0.70
25514;BMP180;48128;54.242;10.280;2022-11-20T07:54:06;100501.00;;;0.70
25514;BMP180;48128;54.242;10.280;2022-11-20T07:56:33;100515.00;;;0.90
25514;BMP180;48128;54.242;10.280;2022-11-20T07:58:59;100515.00;;;1.00
25514;BMP180;48128;54.242;10.280;2022-11-20T08:01:26;100520.00;;;1.30
25514;BMP180;48128;54.242;10.280;2022-11-20T08:03:53;100521.00;;;1.60
25514;BMP180;48128;54.242;10.280;2022-11-20T08:06:20;100530.00;;;1.60
25514;BMP180;48128;54.242;10.280;2022-11-20T08:08:47;100536.00;;;1.60
25514;BMP180;48128;54.242;10.280;2022-11-20T08:11:13;100532.00;;;1.50
25514;BMP180;48128;54.242;10.280;2022-11-20T08:13:59;100552.00;;;1.30
25514;BMP180;48128;54.242;10.280;2022-11-20T08:16:48;100545.00;;;1.10
25514;BMP180;48128;54.242;10.280;2022-11-20T08:19:16;100542.00;;;1.10
25514;BMP180;48128;54.242;10.280;2022-11-20T08:21:44;100547.00;;;1.10
25514;BMP180;48128;54.242;10.280;2022-11-20T08:24:11;100545.00;;;1.00
25514;BMP180;48128;54.242;10.280;2022-11-20T08:26:38;100545.00;;;1.10
25514;BMP180;48128;54.242;10.280;2022-11-20T08:29:05;100536.00;;;1.00
25514;BMP180;48128;54.242;10.280;2022-11-20T08:31:32;100529.00;;;1.00
25514;BMP180;48128;54.242;10.280;2022-11-20T08:33:59;100542.00;;;1.00
25514;BMP180;48128;54.242;10.280;2022-11-20T08:36:33;100527.00;;;1.00
25514;BMP180;48128;54.242;10.280;2022-11-20T08:39:01;100538.00;;;0.90
25514;BMP180;48128;54.242;10.280;2022-11-20T08:41:29;100540.00;;;0.90
25514;BMP180;48128;54.242;10.280;2022-11-20T08:44:05;100536.00;;;0.90
25514;BMP180;48128;54.242;10.280;2022-11-20T08:46:38;100542.00;;;0.90
25514;BMP180;48128;54.242;10.280;2022-11-20T08:49:08;100546.00;;;1.00
25514;BMP180;48128;54.242;10.280;2022-11-20T08:51:35;100532.00;;;1.30
25514;BMP180;48128;54.242;10.280;2022-11-20T08:54:02;100540.00;;;1.60
25514;BMP180;48128;54.242;10.280;2022-11-20T08:56:29;100544.00;;;1.80
25514;BMP180;48128;54.242;10.280;2022-11-20T08:58:56;100551.00;;;1.80
25514;BMP180;48128;54.242;10.280;2022-11-20T09:01:43;100546.00;;;1.80
25514;BMP180;48128;54.242;10.280;2022-11-20T09:04:09;100539.00;;;1.80
25514;BMP180;48128;54.242;10.280;2022-11-20T09:06:38;100551.00;;;1.70
25514;BMP180;48128;54.242;10.280;2022-11-20T09:09:05;100547.00;;;1.50
25514;BMP180;48128;54.242;10.280;2022-11-20T09:11:34;100552.00;;;1.40
25514;BMP180;48128;54.242;10.280;2022-11-20T09:14:01;100540.00;;;1.30
25514;BMP180;48128;54.242;10.280;2022-11-20T09:16:29;100543.00;;;1.30
25514;BMP180;48128;54.242;10.280;2022-11-20T09:18:59;100536.00;;;1.40
25514;BMP180;48128;54.242;10.280;2022-11-20T09:21:46;100538.00;;;1.50
25514;BMP180;48128;54.242;10.280;2022-11-20T09:24:13;100540.00;;;1.70
25514;BMP180;48128;54.242;10.280;2022-11-20T09:26:40;100542.00;;;1.90
25514;BMP180;48128;54.242;10.280;2022-11-20T09:29:10;100546.00;;;2.20
25514;BMP180;48128;54.242;10.280;2022-11-20T09:31:37;100549.00;;;2.40
25514;BMP180;48128;54.242;10.280;2022-11-20T09:34:04;100563.00;;;2.50
25514;BMP180;48128;54.242;10.280;2022-11-20T09:36:31;100576.00;;;2.60
25514;BMP180;48128;54.242;10.280;2022-11-20T09:38:58;100578.00;;;2.70
25514;BMP180;48128;54.242;10.280;2022-11-20T09:41:51;100580.00;;;2.90
25514;BMP180;48128;54.242;10.280;2022-11-20T09:44:40;100599.00;;;3.10
25514;BMP180;48128;54.242;10.280;2022-11-20T09:56:17;100614.00;;;3.50
25514;BMP180;48128;54.242;10.280;2022-11-20T09:59:14;100586.00;;;3.80
25514;BMP180;48128;54.242;10.280;2022-11-20T10:01:53;100616.00;;;3.90
25514;BMP180;48128;54.242;10.280;2022-11-20T10:04:27;100620.00;;;4.00
25514;BMP180;48128;54.242;10.280;2022-11-20T10:07:03;100629.00;;;3.90
25514;BMP180;48128;54.242;10.280;2022-11-20T10:09:53;100639.00;;;3.50
25514;BMP180;48128;54.242;10.280;2022-11-20T10:15:12;100597.00;;;2.80
25514;BMP180;48128;54.242;10.280;2022-11-20T10:20:46;100557.00;;;2.60
25514;BMP180;48128;54.242;10.280;2022-11-20T10:23:38;100546.00;;;2.50
25514;BMP180;48128;54.242;10.280;2022-11-20T10:31:36;100535.00;;;2.50
25514;BMP180;48128;54.242;10.280;2022-11-20T10:34:31;100513.00;;;2.60
25514;BMP180;48128;54.242;10.280;2022-11-20T10:37:01;100522.00;;;2.80
25514;BMP180;48128;54.242;10.280;2022-11-20T10:42:24;100519.00;;;3.30
25514;BMP180;48128;54.242;10.280;2022-11-20T10:44:58;100535.00;;;3.40
25514;BMP180;48128;54.242;10.280;2022-11-20T10:47:48;100545.00;;;3.60
25514;BMP180;48128;54.242;10.280;2022-11-20T10:50:21;100531.00;;;3.70
25514;BMP180;48128;54.242;10.280;2022-11-20T10:55:46;100555.00;;;3.90
25514;BMP180;48128;54.242;10.280;2022-11-20T11:01:15;100556.00;;;3.70
25514;BMP180;48128;54.242;10.280;2022-11-20T11:03:52;100548.00;;;3.50
25514;BMP180;48128;54.242;10.280;2022-11-20T11:06:31;100540.00;;;3.40
25514;BMP180;48128;54.242;10.280;2022-11-20T11:09:04;100530.00;;;3.30
25514;BMP180;48128;54.242;10.280;2022-11-20T11:11:35;100532.00;;;3.30
25514;BMP180;48128;54.242;10.280;2022-11-20T11:14:12;100519.00;;;3.30
25514;BMP180;48128;54.242;10.280;2022-11-20T11:16:51;100520.00;;;3.20
25514;BMP180;48128;54.242;10.280;2022-11-20T11:19:18;100515.00;;;3.10
25514;BMP180;48128;54.242;10.280;2022-11-20T11:24:25;100512.00;;;3.20
25514;BMP180;48128;54.242;10.280;2022-11-20T11:27:14;100519.00;;;3.20
25514;BMP180;48128;54.242;10.280;2022-11-20T11:29:44;100526.00;;;3.10
25514;BMP180;48128;54.242;10.280;2022-11-20T11:34:39;100517.00;;;2.60
25514;BMP180;48128;54.242;10.280;2022-11-20T11:37:16;100509.00;;;2.40
25514;BMP180;48128;54.242;10.280;2022-11-20T11:39:44;100492.00;;;2.20
25514;BMP180;48128;54.242;10.280;2022-11-20T11:42:35;100483.00;;;2.20
25514;BMP180;48128;54.242;10.280;2022-11-20T11:45:07;100482.00;;;2.10
25514;BMP180;48128;54.242;10.280;2022-11-20T11:47:44;100473.00;;;2.10
25514;BMP180;48128;54.242;10.280;2022-11-20T11:50:17;100461.00;;;2.10
25514;BMP180;48128;54.242;10.280;2022-11-20T11:58:16;100465.00;;;2.40
25514;BMP180;48128;54.242;10.280;2022-11-20T12:00:58;100479.00;;;2.40
25514;BMP180;48128;54.242;10.280;2022-11-20T12:03:38;100475.00;;;2.40
25514;BMP180;48128;54.242;10.280;2022-11-20T12:06:14;100468.00;;;2.10
25514;BMP180;48128;54.242;10.280;2022-11-20T12:08:57;100476.00;;;1.90
25514;BMP180;48128;54.242;10.280;2022-11-20T12:11:32;100458.00;;;1.80
25514;BMP180;48128;54.242;10.280;2022-11-20T12:14:20;100449.00;;;1.80
25514;BMP180;48128;54.242;10.280;2022-11-20T12:16:50;100461.00;;;1.90
25514;BMP180;48128;54.242;10.280;2022-11-20T12:19:19;100450.00;;;1.90
25514;BMP180;48128;54.242;10.280;2022-11-20T12:27:34;100453.00;;;2.00
25514;BMP180;48128;54.242;10.280;2022-11-20T12:30:20;100443.00;;;2.00
25514;BMP180;48128;54.242;10.280;2022-11-20T12:43:51;100456.00;;;2.20
25514;BMP180;48128;54.242;10.280;2022-11-20T12:46:46;100450.00;;;2.20
25514;BMP180;48128;54.242;10.280;2022-11-20T12:49:47;100461.00;;;2.30
25514;BMP180;48128;54.242;10.280;2022-11-20T12:57:45;100467.00;;;2.50
25514;BMP180;48128;54.242;10.280;2022-11-20T13:00:20;100467.00;;;2.60
25514;BMP180;48128;54.242;10.280;2022-11-20T13:05:52;100464.00;;;2.70
25514;BMP180;48128;54.242;10.280;2022-11-20T13:08:27;100460.00;;;2.60
25514;BMP180;48128;54.242;10.280;2022-11-20T13:14:00;100473.00;;;2.40
25514;BMP180;48128;54.242;10.280;2022-11-20T13:16:36;100453.00;;;2.30
25514;BMP180;48128;54.242;10.280;2022-11-20T13:19:04;100441.00;;;2.20
25514;BMP180;48128;54.242;10.280;2022-11-20T13:21:36;100447.00;;;2.20
25514;BMP180;48128;54.242;10.280;2022-11-20T13:24:07;100450.00;;;2.20
25514;BMP180;48128;54.242;10.280;2022-11-20T13:26:47;100455.00;;;2.20
25514;BMP180;48128;54.242;10.280;2022-11-20T13:29:18;100454.00;;;2.20
25514;BMP180;48128;54.242;10.280;2022-11-20T13:31:46;100441.00;;;2.20
25514;BMP180;48128;54.242;10.280;2022-11-20T13:34:23;100448.00;;;2.10
25514;BMP180;48128;54.242;10.280;2022-11-20T13:36:52;100441.00;;;2.10
25514;BMP180;48128;54.242;10.280;2022-11-20T13:39:35;100431.00;;;2.00
25514;BMP180;48128;54.242;10.280;2022-11-20T13:42:27;100421.00;;;1.90
25514;BMP180;48128;54.242;10.280;2022-11-20T13:44:55;100418.00;;;1.80
25514;BMP180;48128;54.242;10.280;2022-11-20T13:47:27;100412.00;;;1.70
25514;BMP180;48128;54.242;10.280;2022-11-20T13:49:58;100408.00;;;1.70
25514;BMP180;48128;54.242;10.280;2022-11-20T13:55:30;100402.00;;;1.60
25514;BMP180;48128;54.242;10.280;2022-11-20T14:00:55;100401.00;;;1.50
25514;BMP180;48128;54.242;10.280;2022-11-20T14:03:24;100400.00;;;1.40
25514;BMP180;48128;54.242;10.280;2022-11-20T14:06:15;100402.00;;;1.30
25514;BMP180;48128;54.242;10.280;2022-11-20T14:08:48;100404.00;;;1.10
25514;BMP180;48128;54.242;10.280;2022-11-20T14:11:17;100410.00;;;1.00
25514;BMP180;48128;54.242;10.280;2022-11-20T14:14:01;100392.00;;;1.00
25514;BMP180;48128;54.242;10.280;2022-11-20T14:16:34;100406.00;;;1.00
25514;BMP180;48128;54.242;10.280;2022-11-20T14:22:25;100405.00;;;0.90
25514;BMP180;48128;54.242;10.280;2022-11-20T14:27:49;100395.00;;;0.80
25514;BMP180;48128;54.242;10.280;2022-11-20T14:30:20;100376.00;;;0.60
25514;BMP180;48128;54.242;10.280;2022-11-20T14:32:47;100368.00;;;0.60
25514;BMP180;48128;54.242;10.280;2022-11-20T14:35:37;100367.00;;;0.50
25514;BMP180;48128;54.242;10.280;2022-11-20T14:38:09;100367.00;;;0.50
25514;BMP180;48128;54.242;10.280;2022-11-20T14:40:38;100360.00;;;0.40
25514;BMP180;48128;54.242;10.280;2022-11-20T14:45:59;100357.00;;;0.40
25514;BMP180;48128;54.242;10.280;2022-11-20T14:48:38;100359.00;;;0.30
25514;BMP180;48128;54.242;10.280;2022-11-20T14:51:11;100351.00;;;0.30
25514;BMP180;48128;54.242;10.280;2022-11-20T14:53:38;100349.00;;;0.20
25514;BMP180;48128;54.242;10.280;2022-11-20T14:56:05;100347.00;;;0.20
25514;BMP180;48128;54.242;10.280;2022-11-20T15:01:57;100354.00;;;0.00
25514;BMP180;48128;54.242;10.280;2022-11-20T15:04:48;100346.00;;;0.00
25514;BMP180;48128;54.242;10.280;2022-11-20T15:07:29;100347.00;;;-0.10
25514;BMP180;48128;54.242;10.280;2022-11-20T15:10:07;100342.00;;;-0.20
25514;BMP180;48128;54.242;10.280;2022-11-20T15:12:57;100333.00;;;-0.30
25514;BMP180;48128;54.242;10.280;2022-11-20T15:15:59;100334.00;;;-0.30
25514;BMP180;48128;54.242;10.280;2022-11-20T15:18:32;100331.00;;;-0.40
25514;BMP180;48128;54.242;10.280;2022-11-20T15:21:13;100338.00;;;-0.40
25514;BMP180;48128;54.242;10.280;2022-11-20T15:23:41;100337.00;;;-0.50
25514;BMP180;48128;54.242;10.280;2022-11-20T15:26:08;100335.00;;;-0.50
25514;BMP180;48128;54.242;10.280;2022-11-20T15:28:41;100339.00;;;-0.60
25514;BMP180;48128;54.242;10.280;2022-11-20T15:31:11;100316.00;;;-0.60
25514;BMP180;48128;54.242;10.280;2022-11-20T15:33:39;100334.00;;;-0.60
25514;BMP180;48128;54.242;10.280;2022-11-20T15:36:05;100334.00;;;-0.70
25514;BMP180;48128;54.242;10.280;2022-11-20T15:38:32;100332.00;;;-0.80
25514;BMP180;48128;54.242;10.280;2022-11-20T15:41:27;100326.00;;;-0.80
25514;BMP180;48128;54.242;10.280;2022-11-20T15:43:54;100331.00;;;-0.90
25514;BMP180;48128;54.242;10.280;2022-11-20T15:46:29;100333.00;;;-1.00
25514;BMP180;48128;54.242;10.280;2022-11-20T15:48:58;100337.00;;;-1.00
25514;BMP180;48128;54.242;10.280;2022-11-20T15:51:28;100320.00;;;-1.00
25514;BMP180;48128;54.242;10.280;2022-11-20T15:53:56;100335.00;;;-1.00
25514;BMP180;48128;54.242;10.280;2022-11-20T15:56:23;100337.00;;;-1.10
25514;BMP180;48128;54.242;10.280;2022-11-20T15:58:50;100332.00;;;-1.10
25514;BMP180;48128;54.242;10.280;2022-11-20T16:01:19;100319.00;;;-1.10
25514;BMP180;48128;54.242;10.280;2022-11-20T16:03:48;100336.00;;;-1.10